N815SG CYFB-BGSF
Flight info
| Callsign | N815SG |
|---|---|
| Flight time | 3h 9m |
| Altitude | 5000 |
| Route | KENKI DCT 6552N05833W/M030F050 DCT GIGOM DCT SF |
| Aircraft | BE58/L-SDFGRY/C |
Departure
| Time | 2026-05-07 03:31 |
|---|---|
| Airport | Iqaluit Airport (CYFB) |
Arrival
| Time | 2026-05-07 06:40 |
|---|---|
| Airport | Kangerlussuaq International Airport (BGSF) |
| Time | Latitude | Longitude | Altitude | Speed | Heading |
|---|---|---|---|---|---|
| 2026-05-07 03:18 | 63.75673 | -68.54577 | 90 ft | 0 kts | 45° |
| 2026-05-07 03:27 | 63.75683 | -68.54569 | 91 ft | 0 kts | 348° |
| 2026-05-07 03:27 | 63.75688 | -68.54554 | 89 ft | 6 kts | 102° |
| 2026-05-07 03:27 | 63.75665 | -68.54612 | 89 ft | 7 kts | 263° |
| 2026-05-07 03:28 | 63.75695 | -68.54746 | 89 ft | 13 kts | 306° |
| 2026-05-07 03:28 | 63.75755 | -68.54951 | 89 ft | 18 kts | 301° |
| 2026-05-07 03:28 | 63.75786 | -68.55252 | 90 ft | 22 kts | 281° |
| 2026-05-07 03:28 | 63.75810 | -68.55506 | 89 ft | 11 kts | 283° |
| 2026-05-07 03:29 | 63.75822 | -68.55640 | 91 ft | 7 kts | 280° |
| 2026-05-07 03:29 | 63.75839 | -68.55792 | 91 ft | 13 kts | 282° |
| 2026-05-07 03:29 | 63.75875 | -68.56027 | 90 ft | 18 kts | 309° |
| 2026-05-07 03:29 | 63.75938 | -68.56194 | 88 ft | 9 kts | 249° |
| 2026-05-07 03:30 | 63.75872 | -68.56088 | 91 ft | 20 kts | 134° |
| 2026-05-07 03:30 | 63.75651 | -68.55593 | 87 ft | 77 kts | 135° |
| 2026-05-07 03:30 | 63.75181 | -68.54502 | 253 ft | 108 kts | 122° |
| 2026-05-07 03:30 | 63.75150 | -68.52716 | 428 ft | 132 kts | 81° |
| 2026-05-07 03:31 | 63.75574 | -68.50779 | 718 ft | 141 kts | 63° |
| 2026-05-07 03:31 | 63.76047 | -68.48820 | 918 ft | 148 kts | 56° |
| 2026-05-07 03:31 | 63.76847 | -68.48186 | 1841 ft | 125 kts | 16° |
| 2026-05-07 03:31 | 63.77690 | -68.47585 | 1936 ft | 126 kts | 53° |
| 2026-05-07 03:32 | 63.78141 | -68.45915 | 2157 ft | 128 kts | 70° |
| 2026-05-07 03:32 | 63.78586 | -68.44097 | 2357 ft | 134 kts | 69° |
| 2026-05-07 03:32 | 63.79048 | -68.42239 | 2570 ft | 138 kts | 69° |
| 2026-05-07 03:32 | 63.79528 | -68.40328 | 2768 ft | 141 kts | 69° |
| 2026-05-07 03:33 | 63.80011 | -68.38400 | 2958 ft | 141 kts | 69° |
| 2026-05-07 03:33 | 63.80496 | -68.36467 | 3148 ft | 141 kts | 70° |
| 2026-05-07 03:33 | 63.80982 | -68.34550 | 3328 ft | 140 kts | 70° |
| 2026-05-07 03:33 | 63.81460 | -68.32634 | 3514 ft | 140 kts | 70° |
| 2026-05-07 03:34 | 63.81943 | -68.30697 | 3694 ft | 141 kts | 69° |
| 2026-05-07 03:34 | 63.82426 | -68.28784 | 3876 ft | 139 kts | 70° |
| 2026-05-07 03:34 | 63.82904 | -68.26879 | 4065 ft | 140 kts | 70° |
| 2026-05-07 03:34 | 63.83383 | -68.24962 | 4244 ft | 140 kts | 71° |
| 2026-05-07 03:35 | 63.83862 | -68.23048 | 4437 ft | 139 kts | 71° |
| 2026-05-07 03:35 | 63.84339 | -68.21141 | 4619 ft | 139 kts | 71° |
| 2026-05-07 03:35 | 63.84814 | -68.19236 | 4805 ft | 139 kts | 71° |
| 2026-05-07 03:35 | 63.85289 | -68.17339 | 4985 ft | 138 kts | 71° |
| 2026-05-07 03:36 | 63.85773 | -68.15382 | 5009 ft | 147 kts | 71° |
| 2026-05-07 03:36 | 63.86284 | -68.13324 | 5017 ft | 152 kts | 70° |
| 2026-05-07 03:36 | 63.86810 | -68.11211 | 5018 ft | 155 kts | 70° |
| 2026-05-07 03:36 | 63.87343 | -68.09071 | 5018 ft | 156 kts | 70° |
| 2026-05-07 03:37 | 63.87880 | -68.06909 | 5022 ft | 158 kts | 70° |
| 2026-05-07 03:37 | 63.88415 | -68.04761 | 5019 ft | 159 kts | 70° |
| 2026-05-07 03:37 | 63.88957 | -68.02572 | 5018 ft | 159 kts | 70° |
| 2026-05-07 03:37 | 63.89500 | -68.00378 | 5017 ft | 160 kts | 70° |
| 2026-05-07 03:38 | 63.90044 | -67.98180 | 5021 ft | 160 kts | 70° |
| 2026-05-07 03:38 | 63.90589 | -67.95974 | 5017 ft | 160 kts | 70° |
| 2026-05-07 03:38 | 63.91135 | -67.93765 | 5015 ft | 160 kts | 70° |
| 2026-05-07 03:38 | 63.91680 | -67.91556 | 5009 ft | 160 kts | 70° |
| 2026-05-07 03:39 | 63.92225 | -67.89345 | 5013 ft | 161 kts | 70° |
| 2026-05-07 03:39 | 63.92769 | -67.87132 | 5016 ft | 158 kts | 71° |
| 2026-05-07 03:39 | 63.93299 | -67.84978 | 5017 ft | 154 kts | 71° |
| 2026-05-07 03:39 | 63.93820 | -67.82859 | 5017 ft | 153 kts | 71° |
| 2026-05-07 03:40 | 63.94332 | -67.80755 | 5011 ft | 153 kts | 71° |
| 2026-05-07 03:40 | 63.94846 | -67.78651 | 5017 ft | 152 kts | 71° |
| 2026-05-07 03:40 | 63.95359 | -67.76565 | 5018 ft | 151 kts | 71° |
| 2026-05-07 03:40 | 63.95869 | -67.74477 | 5015 ft | 151 kts | 71° |
| 2026-05-07 03:41 | 63.96378 | -67.72395 | 5015 ft | 150 kts | 71° |
| 2026-05-07 03:41 | 63.96879 | -67.70327 | 5016 ft | 150 kts | 72° |
| 2026-05-07 03:41 | 63.97385 | -67.68269 | 5016 ft | 148 kts | 71° |
| 2026-05-07 03:41 | 63.97876 | -67.66263 | 5015 ft | 146 kts | 71° |
| 2026-05-07 03:42 | 63.98368 | -67.64239 | 5015 ft | 147 kts | 71° |
| 2026-05-07 03:42 | 63.98864 | -67.62204 | 5018 ft | 147 kts | 72° |
| 2026-05-07 03:42 | 63.99361 | -67.60146 | 5017 ft | 149 kts | 72° |
| 2026-05-07 03:42 | 63.99864 | -67.58079 | 5019 ft | 149 kts | 71° |
| 2026-05-07 03:43 | 64.00367 | -67.56009 | 5023 ft | 150 kts | 71° |
| 2026-05-07 03:43 | 64.00872 | -67.53932 | 5039 ft | 149 kts | 71° |
| 2026-05-07 03:43 | 64.01383 | -67.51860 | 5034 ft | 152 kts | 70° |
| 2026-05-07 03:43 | 64.01886 | -67.49743 | 5004 ft | 151 kts | 70° |
| 2026-05-07 03:44 | 64.02390 | -67.47655 | 5009 ft | 149 kts | 70° |
| 2026-05-07 03:44 | 64.02898 | -67.45586 | 4992 ft | 149 kts | 68° |
| 2026-05-07 03:44 | 64.03391 | -67.43523 | 4996 ft | 148 kts | 69° |
| 2026-05-07 03:44 | 64.03886 | -67.41461 | 4997 ft | 148 kts | 69° |
| 2026-05-07 03:45 | 64.04382 | -67.39476 | 4995 ft | 142 kts | 69° |
| 2026-05-07 03:45 | 64.04852 | -67.37485 | 4996 ft | 142 kts | 69° |
| 2026-05-07 03:45 | 64.05322 | -67.35488 | 4996 ft | 143 kts | 69° |
| 2026-05-07 03:45 | 64.05803 | -67.33487 | 5000 ft | 145 kts | 69° |
| 2026-05-07 03:46 | 64.06292 | -67.31447 | 5001 ft | 147 kts | 69° |
| 2026-05-07 03:46 | 64.06786 | -67.29390 | 4999 ft | 148 kts | 69° |
| 2026-05-07 03:46 | 64.07282 | -67.27321 | 4996 ft | 149 kts | 69° |
| 2026-05-07 03:46 | 64.07777 | -67.25253 | 5005 ft | 149 kts | 69° |
| 2026-05-07 03:47 | 64.08275 | -67.23163 | 5000 ft | 151 kts | 69° |
| 2026-05-07 03:47 | 64.08778 | -67.21055 | 5017 ft | 151 kts | 69° |
| 2026-05-07 03:47 | 64.09282 | -67.18949 | 5017 ft | 150 kts | 69° |
| 2026-05-07 03:47 | 64.09776 | -67.16875 | 5017 ft | 151 kts | 69° |
| 2026-05-07 03:48 | 64.10284 | -67.14739 | 5014 ft | 151 kts | 69° |
| 2026-05-07 03:48 | 64.10780 | -67.12659 | 5016 ft | 151 kts | 69° |
| 2026-05-07 03:48 | 64.11281 | -67.10549 | 5017 ft | 151 kts | 69° |
| 2026-05-07 03:48 | 64.11783 | -67.08437 | 5015 ft | 151 kts | 69° |
| 2026-05-07 03:49 | 64.12283 | -67.06327 | 5014 ft | 151 kts | 69° |
| 2026-05-07 03:49 | 64.12781 | -67.04224 | 4996 ft | 149 kts | 69° |
| 2026-05-07 03:49 | 64.13273 | -67.02145 | 5000 ft | 148 kts | 69° |
| 2026-05-07 03:49 | 64.13760 | -67.00090 | 4985 ft | 146 kts | 70° |
| 2026-05-07 03:50 | 64.14240 | -66.98062 | 4990 ft | 144 kts | 70° |
| 2026-05-07 03:50 | 64.14714 | -66.96046 | 4994 ft | 144 kts | 69° |
| 2026-05-07 03:50 | 64.15193 | -66.94015 | 4993 ft | 145 kts | 69° |
| 2026-05-07 03:50 | 64.15673 | -66.91977 | 4992 ft | 146 kts | 69° |
| 2026-05-07 03:51 | 64.16155 | -66.89932 | 4989 ft | 146 kts | 69° |
| 2026-05-07 03:51 | 64.16634 | -66.87896 | 4999 ft | 145 kts | 70° |
| 2026-05-07 03:51 | 64.17111 | -66.85866 | 4995 ft | 144 kts | 70° |
| 2026-05-07 03:51 | 64.17586 | -66.83839 | 4995 ft | 145 kts | 70° |
| 2026-05-07 03:52 | 64.18061 | -66.81815 | 5002 ft | 145 kts | 70° |
| 2026-05-07 03:52 | 64.18538 | -66.79779 | 5002 ft | 145 kts | 70° |
| 2026-05-07 03:52 | 64.19017 | -66.77735 | 5000 ft | 145 kts | 70° |
| 2026-05-07 03:52 | 64.19492 | -66.75705 | 4998 ft | 144 kts | 70° |
| 2026-05-07 03:53 | 64.19966 | -66.73673 | 4997 ft | 145 kts | 70° |
| 2026-05-07 03:53 | 64.20442 | -66.71635 | 4991 ft | 145 kts | 70° |
| 2026-05-07 03:53 | 64.20916 | -66.69601 | 4994 ft | 145 kts | 70° |
| 2026-05-07 03:53 | 64.21388 | -66.67577 | 4989 ft | 143 kts | 70° |
| 2026-05-07 03:54 | 64.21856 | -66.65570 | 4997 ft | 142 kts | 70° |
| 2026-05-07 03:54 | 64.22321 | -66.63563 | 4994 ft | 143 kts | 70° |
| 2026-05-07 03:54 | 64.22789 | -66.61553 | 4996 ft | 143 kts | 70° |
| 2026-05-07 03:54 | 64.23260 | -66.59517 | 4998 ft | 145 kts | 70° |
| 2026-05-07 03:55 | 64.23730 | -66.57512 | 4998 ft | 144 kts | 70° |
| 2026-05-07 03:55 | 64.24197 | -66.55477 | 4993 ft | 144 kts | 70° |
| 2026-05-07 03:55 | 64.24669 | -66.53434 | 4997 ft | 145 kts | 70° |
| 2026-05-07 03:55 | 64.25142 | -66.51394 | 4992 ft | 144 kts | 70° |
| 2026-05-07 03:56 | 64.25610 | -66.49370 | 4995 ft | 143 kts | 70° |
| 2026-05-07 03:56 | 64.26076 | -66.47352 | 4991 ft | 142 kts | 70° |
| 2026-05-07 03:56 | 64.26537 | -66.45353 | 4994 ft | 142 kts | 70° |
| 2026-05-07 03:56 | 64.27001 | -66.43330 | 4993 ft | 144 kts | 70° |
| 2026-05-07 03:57 | 64.27473 | -66.41281 | 4996 ft | 145 kts | 70° |
| 2026-05-07 03:57 | 64.27943 | -66.39242 | 5002 ft | 144 kts | 70° |
| 2026-05-07 03:57 | 64.28414 | -66.37193 | 4994 ft | 145 kts | 70° |
| 2026-05-07 03:57 | 64.28883 | -66.35150 | 5001 ft | 144 kts | 70° |
| 2026-05-07 03:58 | 64.29351 | -66.33107 | 4993 ft | 144 kts | 70° |
| 2026-05-07 03:58 | 64.29819 | -66.31087 | 4993 ft | 142 kts | 67° |
| 2026-05-07 03:58 | 64.30286 | -66.29041 | 4990 ft | 145 kts | 69° |
| 2026-05-07 03:58 | 64.30752 | -66.26977 | 4989 ft | 145 kts | 68° |
| 2026-05-07 03:59 | 64.31221 | -66.24932 | 4994 ft | 144 kts | 68° |
| 2026-05-07 03:59 | 64.31692 | -66.22859 | 5000 ft | 148 kts | 68° |
| 2026-05-07 03:59 | 64.32164 | -66.20788 | 4973 ft | 144 kts | 71° |
| 2026-05-07 03:59 | 64.32631 | -66.18734 | 5013 ft | 147 kts | 70° |
| 2026-05-07 04:00 | 64.33112 | -66.16627 | 5012 ft | 150 kts | 71° |
| 2026-05-07 04:00 | 64.33599 | -66.14483 | 5016 ft | 152 kts | 70° |
| 2026-05-07 04:00 | 64.34091 | -66.12312 | 5021 ft | 154 kts | 70° |
| 2026-05-07 04:00 | 64.34591 | -66.10116 | 5027 ft | 155 kts | 70° |
| 2026-05-07 04:01 | 64.35091 | -66.07910 | 5049 ft | 154 kts | 70° |
| 2026-05-07 04:01 | 64.35588 | -66.05721 | 5040 ft | 153 kts | 71° |
| 2026-05-07 04:01 | 64.36076 | -66.03552 | 5025 ft | 151 kts | 71° |
| 2026-05-07 04:01 | 64.36554 | -66.01443 | 5034 ft | 148 kts | 70° |
| 2026-05-07 04:02 | 64.37034 | -65.99330 | 5027 ft | 148 kts | 70° |
| 2026-05-07 04:02 | 64.37500 | -65.97239 | 5036 ft | 146 kts | 71° |
| 2026-05-07 04:02 | 64.37973 | -65.95153 | 5046 ft | 147 kts | 70° |
| 2026-05-07 04:02 | 64.38441 | -65.93080 | 5046 ft | 148 kts | 71° |
| 2026-05-07 04:03 | 64.38920 | -65.90940 | 5048 ft | 152 kts | 71° |
| 2026-05-07 04:03 | 64.39414 | -65.88722 | 5047 ft | 158 kts | 70° |
| 2026-05-07 04:03 | 64.39926 | -65.86442 | 5076 ft | 160 kts | 70° |
| 2026-05-07 04:03 | 64.40444 | -65.84142 | 5070 ft | 161 kts | 70° |
| 2026-05-07 04:04 | 64.40962 | -65.81835 | 5066 ft | 161 kts | 70° |
| 2026-05-07 04:04 | 64.41472 | -65.79557 | 5064 ft | 158 kts | 70° |
| 2026-05-07 04:04 | 64.41975 | -65.77299 | 5069 ft | 158 kts | 71° |
| 2026-05-07 04:04 | 64.42477 | -65.75015 | 5069 ft | 160 kts | 70° |
| 2026-05-07 04:05 | 64.42999 | -65.72701 | 5066 ft | 164 kts | 70° |
| 2026-05-07 04:05 | 64.43345 | -65.71167 | 5062 ft | 160 kts | 70° |
| 2026-05-07 04:05 | 64.43849 | -65.68905 | 5043 ft | 156 kts | 71° |
| 2026-05-07 04:05 | 64.44339 | -65.66699 | 5060 ft | 153 kts | 71° |
| 2026-05-07 04:06 | 64.44825 | -65.64526 | 5073 ft | 152 kts | 69° |
| 2026-05-07 04:06 | 64.45293 | -65.62300 | 5071 ft | 157 kts | 70° |
| 2026-05-07 04:06 | 64.45815 | -65.60025 | 5075 ft | 164 kts | 69° |
| 2026-05-07 04:06 | 64.46339 | -65.57682 | 5085 ft | 163 kts | 71° |
| 2026-05-07 04:07 | 64.46825 | -65.55371 | 5077 ft | 156 kts | 72° |
| 2026-05-07 04:07 | 64.47327 | -65.53117 | 5086 ft | 158 kts | 69° |
| 2026-05-07 04:07 | 64.47852 | -65.50860 | 5091 ft | 160 kts | 69° |
| 2026-05-07 04:07 | 64.48361 | -65.48557 | 5094 ft | 162 kts | 70° |
| 2026-05-07 04:08 | 64.48824 | -65.46164 | 5101 ft | 165 kts | 71° |
| 2026-05-07 04:08 | 64.49375 | -65.43773 | 5092 ft | 169 kts | 67° |
| 2026-05-07 04:08 | 64.49937 | -65.41440 | 5087 ft | 163 kts | 67° |
| 2026-05-07 04:08 | 64.50432 | -65.39074 | 5080 ft | 167 kts | 74° |
| 2026-05-07 04:09 | 64.50926 | -65.36550 | 5102 ft | 174 kts | 62° |
| 2026-05-07 04:09 | 64.51604 | -65.34295 | 5066 ft | 161 kts | 70° |
| 2026-05-07 04:09 | 64.52014 | -65.31980 | 5080 ft | 154 kts | 77° |
| 2026-05-07 04:09 | 64.52472 | -65.29703 | 5090 ft | 156 kts | 72° |
| 2026-05-07 04:10 | 64.52963 | -65.27474 | 5093 ft | 155 kts | 72° |
| 2026-05-07 04:10 | 64.53452 | -65.25247 | 5094 ft | 155 kts | 73° |
| 2026-05-07 04:10 | 64.53932 | -65.22984 | 5091 ft | 160 kts | 72° |
| 2026-05-07 04:10 | 64.54448 | -65.20695 | 5092 ft | 159 kts | 71° |
| 2026-05-07 04:11 | 64.54948 | -65.18442 | 5097 ft | 155 kts | 73° |
| 2026-05-07 04:11 | 64.55426 | -65.16191 | 5106 ft | 155 kts | 73° |
| 2026-05-07 04:11 | 64.55906 | -65.13919 | 5091 ft | 155 kts | 74° |
| 2026-05-07 04:11 | 64.56383 | -65.11689 | 5101 ft | 155 kts | 72° |
| 2026-05-07 04:12 | 64.56883 | -65.09460 | 5105 ft | 156 kts | 71° |
| 2026-05-07 04:12 | 64.57376 | -65.07196 | 5097 ft | 157 kts | 72° |
| 2026-05-07 04:12 | 64.57865 | -65.04940 | 5092 ft | 154 kts | 72° |
| 2026-05-07 04:12 | 64.58342 | -65.02720 | 5085 ft | 152 kts | 72° |
| 2026-05-07 04:13 | 64.58813 | -65.00531 | 5083 ft | 150 kts | 73° |
| 2026-05-07 04:13 | 64.59279 | -64.98362 | 5082 ft | 150 kts | 73° |
| 2026-05-07 04:13 | 64.59743 | -64.96203 | 5083 ft | 149 kts | 72° |
| 2026-05-07 04:13 | 64.60207 | -64.94048 | 5084 ft | 149 kts | 73° |
| 2026-05-07 04:14 | 64.60671 | -64.91890 | 5081 ft | 149 kts | 72° |
| 2026-05-07 04:14 | 64.61130 | -64.89746 | 5081 ft | 150 kts | 73° |
| 2026-05-07 04:14 | 64.61597 | -64.87569 | 5083 ft | 150 kts | 73° |
| 2026-05-07 04:14 | 64.62063 | -64.85393 | 5082 ft | 150 kts | 72° |
| 2026-05-07 04:15 | 64.62525 | -64.83220 | 5092 ft | 149 kts | 72° |
| 2026-05-07 04:15 | 64.62989 | -64.81051 | 5094 ft | 149 kts | 73° |
| 2026-05-07 04:15 | 64.63451 | -64.78890 | 5103 ft | 149 kts | 73° |
| 2026-05-07 04:15 | 64.63912 | -64.76727 | 5108 ft | 149 kts | 73° |
| 2026-05-07 04:16 | 64.64373 | -64.74556 | 5112 ft | 150 kts | 73° |
| 2026-05-07 04:16 | 64.64836 | -64.72377 | 5112 ft | 150 kts | 73° |
| 2026-05-07 04:16 | 64.65300 | -64.70195 | 5110 ft | 150 kts | 73° |
| 2026-05-07 04:16 | 64.65763 | -64.68012 | 5110 ft | 150 kts | 73° |
| 2026-05-07 04:17 | 64.66227 | -64.65823 | 5108 ft | 150 kts | 73° |
| 2026-05-07 04:17 | 64.66690 | -64.63633 | 5108 ft | 151 kts | 73° |
| 2026-05-07 04:17 | 64.67154 | -64.61443 | 5109 ft | 150 kts | 73° |
| 2026-05-07 04:17 | 64.67616 | -64.59253 | 5108 ft | 151 kts | 73° |
| 2026-05-07 04:18 | 64.68080 | -64.57056 | 5111 ft | 151 kts | 73° |
| 2026-05-07 04:18 | 64.68543 | -64.54864 | 5112 ft | 150 kts | 73° |
| 2026-05-07 04:18 | 64.69005 | -64.52670 | 5110 ft | 151 kts | 73° |
| 2026-05-07 04:18 | 64.69467 | -64.50474 | 5109 ft | 151 kts | 73° |
| 2026-05-07 04:19 | 64.69928 | -64.48283 | 5097 ft | 148 kts | 73° |
| 2026-05-07 04:19 | 64.70378 | -64.46148 | 5105 ft | 145 kts | 74° |
| 2026-05-07 04:19 | 64.70820 | -64.44035 | 5105 ft | 144 kts | 74° |
| 2026-05-07 04:19 | 64.71259 | -64.41937 | 5107 ft | 143 kts | 74° |
| 2026-05-07 04:20 | 64.71696 | -64.39849 | 5106 ft | 143 kts | 74° |
| 2026-05-07 04:20 | 64.72126 | -64.37790 | 5109 ft | 143 kts | 73° |
| 2026-05-07 04:20 | 64.72562 | -64.35706 | 5105 ft | 142 kts | 74° |
| 2026-05-07 04:21 | 64.73431 | -64.31536 | 5102 ft | 143 kts | 74° |
| 2026-05-07 04:21 | 64.73867 | -64.29446 | 5108 ft | 143 kts | 73° |
| 2026-05-07 04:21 | 64.74301 | -64.27363 | 5109 ft | 142 kts | 74° |
| 2026-05-07 04:21 | 64.74735 | -64.25278 | 5104 ft | 142 kts | 74° |
| 2026-05-07 04:22 | 64.75168 | -64.23191 | 5103 ft | 142 kts | 74° |
| 2026-05-07 04:22 | 64.75600 | -64.21108 | 5105 ft | 142 kts | 74° |
| 2026-05-07 04:22 | 64.76032 | -64.19026 | 5105 ft | 142 kts | 74° |
| 2026-05-07 04:22 | 64.76464 | -64.16942 | 5095 ft | 142 kts | 74° |
| 2026-05-07 04:23 | 64.76896 | -64.14855 | 5100 ft | 142 kts | 74° |
| 2026-05-07 04:23 | 64.77327 | -64.12766 | 5121 ft | 142 kts | 74° |
| 2026-05-07 04:23 | 64.77759 | -64.10676 | 5120 ft | 142 kts | 74° |
| 2026-05-07 04:23 | 64.78190 | -64.08585 | 5122 ft | 143 kts | 74° |
| 2026-05-07 04:24 | 64.78625 | -64.06489 | 5120 ft | 143 kts | 74° |
| 2026-05-07 04:24 | 64.79055 | -64.04398 | 5125 ft | 142 kts | 75° |
| 2026-05-07 04:24 | 64.79482 | -64.02303 | 5128 ft | 142 kts | 75° |
| 2026-05-07 04:24 | 64.79912 | -64.00202 | 5133 ft | 143 kts | 74° |
| 2026-05-07 04:25 | 64.80346 | -63.98103 | 5126 ft | 143 kts | 74° |
| 2026-05-07 04:25 | 64.80777 | -63.96002 | 5128 ft | 143 kts | 74° |
| 2026-05-07 04:25 | 64.81208 | -63.93897 | 5129 ft | 143 kts | 74° |
| 2026-05-07 04:25 | 64.81639 | -63.91794 | 5125 ft | 143 kts | 74° |
| 2026-05-07 04:26 | 64.82062 | -63.89724 | 5126 ft | 142 kts | 75° |
| 2026-05-07 04:26 | 64.82490 | -63.87633 | 5126 ft | 142 kts | 75° |
| 2026-05-07 04:26 | 64.82914 | -63.85544 | 5122 ft | 142 kts | 75° |
| 2026-05-07 04:26 | 64.83338 | -63.83455 | 5124 ft | 142 kts | 74° |
| 2026-05-07 04:27 | 64.83766 | -63.81363 | 5122 ft | 142 kts | 74° |
| 2026-05-07 04:27 | 64.84191 | -63.79275 | 5126 ft | 142 kts | 74° |
| 2026-05-07 04:27 | 64.84616 | -63.77183 | 5142 ft | 142 kts | 74° |
| 2026-05-07 04:27 | 64.85040 | -63.75096 | 5146 ft | 141 kts | 74° |
| 2026-05-07 04:28 | 64.85463 | -63.73008 | 5140 ft | 141 kts | 75° |
| 2026-05-07 04:28 | 64.85885 | -63.70926 | 5151 ft | 141 kts | 75° |
| 2026-05-07 04:28 | 64.86305 | -63.68848 | 5144 ft | 141 kts | 74° |
| 2026-05-07 04:28 | 64.86725 | -63.66768 | 5146 ft | 141 kts | 74° |
| 2026-05-07 04:29 | 64.87147 | -63.64685 | 5144 ft | 141 kts | 74° |
| 2026-05-07 04:29 | 64.87566 | -63.62605 | 5144 ft | 141 kts | 74° |
| 2026-05-07 04:29 | 64.87986 | -63.60522 | 5081 ft | 141 kts | 74° |
| 2026-05-07 04:29 | 64.88398 | -63.58486 | 5148 ft | 137 kts | 74° |
| 2026-05-07 04:30 | 64.88805 | -63.56459 | 5149 ft | 137 kts | 74° |
| 2026-05-07 04:30 | 64.89174 | -63.54447 | 5151 ft | 131 kts | 77° |
| 2026-05-07 04:30 | 64.89597 | -63.52455 | 5155 ft | 137 kts | 71° |
| 2026-05-07 04:30 | 64.90025 | -63.50456 | 5155 ft | 137 kts | 74° |
| 2026-05-07 04:31 | 64.90428 | -63.48425 | 5159 ft | 137 kts | 74° |
| 2026-05-07 04:31 | 64.90829 | -63.46392 | 5159 ft | 137 kts | 74° |
| 2026-05-07 04:31 | 64.91233 | -63.44353 | 5159 ft | 138 kts | 74° |
| 2026-05-07 04:31 | 64.91634 | -63.42339 | 5187 ft | 138 kts | 74° |
| 2026-05-07 04:32 | 64.92046 | -63.40270 | 5190 ft | 138 kts | 74° |
| 2026-05-07 04:32 | 64.92454 | -63.38230 | 5188 ft | 138 kts | 74° |
| 2026-05-07 04:32 | 64.92855 | -63.36216 | 5186 ft | 138 kts | 74° |
| 2026-05-07 04:32 | 64.93258 | -63.34181 | 5136 ft | 133 kts | 81° |
| 2026-05-07 04:33 | 64.93505 | -63.32195 | 5206 ft | 128 kts | 70° |
| 2026-05-07 04:33 | 64.94018 | -63.30348 | 5180 ft | 136 kts | 70° |
| 2026-05-07 04:33 | 64.94440 | -63.28375 | 5180 ft | 135 kts | 75° |
| 2026-05-07 04:33 | 64.94828 | -63.26354 | 5179 ft | 136 kts | 75° |
| 2026-05-07 04:34 | 64.95223 | -63.24319 | 5185 ft | 137 kts | 75° |
| 2026-05-07 04:34 | 64.95623 | -63.22275 | 5185 ft | 137 kts | 75° |
| 2026-05-07 04:34 | 64.96026 | -63.20228 | 5184 ft | 138 kts | 74° |
| 2026-05-07 04:34 | 64.96431 | -63.18176 | 5184 ft | 138 kts | 75° |
| 2026-05-07 04:35 | 64.96833 | -63.16136 | 5182 ft | 137 kts | 74° |
| 2026-05-07 04:35 | 64.97234 | -63.14106 | 5178 ft | 136 kts | 74° |
| 2026-05-07 04:35 | 64.97630 | -63.12081 | 5177 ft | 136 kts | 75° |
| 2026-05-07 04:35 | 64.98026 | -63.10061 | 5174 ft | 136 kts | 74° |
| 2026-05-07 04:36 | 64.98418 | -63.08039 | 5180 ft | 135 kts | 75° |
| 2026-05-07 04:36 | 64.98816 | -63.06027 | 5197 ft | 136 kts | 74° |
| 2026-05-07 04:36 | 64.99219 | -63.04005 | 5200 ft | 136 kts | 74° |
| 2026-05-07 04:36 | 64.99617 | -63.01972 | 5204 ft | 136 kts | 75° |
| 2026-05-07 04:37 | 65.00017 | -62.99941 | 5201 ft | 137 kts | 73° |
| 2026-05-07 04:37 | 65.00470 | -62.97945 | 5199 ft | 138 kts | 73° |
| 2026-05-07 04:37 | 65.00903 | -62.95927 | 5198 ft | 138 kts | 73° |
| 2026-05-07 04:37 | 65.01341 | -62.93916 | 5197 ft | 137 kts | 72° |
| 2026-05-07 04:38 | 65.01783 | -62.91911 | 5195 ft | 137 kts | 72° |
| 2026-05-07 04:38 | 65.02220 | -62.89904 | 5196 ft | 137 kts | 72° |
| 2026-05-07 04:38 | 65.02659 | -62.87892 | 5193 ft | 138 kts | 72° |
| 2026-05-07 04:38 | 65.03097 | -62.85880 | 5194 ft | 137 kts | 73° |
| 2026-05-07 04:39 | 65.03536 | -62.83870 | 5198 ft | 137 kts | 73° |
| 2026-05-07 04:39 | 65.03976 | -62.81860 | 5195 ft | 138 kts | 73° |
| 2026-05-07 04:39 | 65.04415 | -62.79848 | 5191 ft | 137 kts | 73° |
| 2026-05-07 04:39 | 65.04847 | -62.77865 | 5196 ft | 137 kts | 72° |
| 2026-05-07 04:40 | 65.05283 | -62.75860 | 5192 ft | 137 kts | 73° |
| 2026-05-07 04:40 | 65.05719 | -62.73854 | 5196 ft | 137 kts | 73° |
| 2026-05-07 04:40 | 65.06154 | -62.71854 | 5188 ft | 134 kts | 73° |
| 2026-05-07 04:40 | 65.06578 | -62.69903 | 5214 ft | 133 kts | 73° |
| 2026-05-07 04:41 | 65.07000 | -62.67947 | 5232 ft | 134 kts | 77° |
| 2026-05-07 04:41 | 65.07424 | -62.65963 | 5229 ft | 136 kts | 74° |
| 2026-05-07 04:41 | 65.07862 | -62.63952 | 5230 ft | 138 kts | 74° |
| 2026-05-07 04:41 | 65.08301 | -62.61923 | 5229 ft | 139 kts | 74° |
| 2026-05-07 04:42 | 65.08742 | -62.59889 | 5230 ft | 139 kts | 74° |
| 2026-05-07 04:42 | 65.09182 | -62.57851 | 5229 ft | 139 kts | 74° |
| 2026-05-07 04:42 | 65.09622 | -62.55807 | 5230 ft | 139 kts | 74° |
| 2026-05-07 04:42 | 65.10063 | -62.53764 | 5228 ft | 139 kts | 74° |
| 2026-05-07 04:43 | 65.10502 | -62.51719 | 5228 ft | 139 kts | 74° |
| 2026-05-07 04:43 | 65.10942 | -62.49673 | 5228 ft | 140 kts | 74° |
| 2026-05-07 04:43 | 65.11384 | -62.47615 | 5228 ft | 140 kts | 74° |
| 2026-05-07 04:43 | 65.11821 | -62.45579 | 5227 ft | 140 kts | 74° |
| 2026-05-07 04:44 | 65.12264 | -62.43512 | 5225 ft | 141 kts | 74° |
| 2026-05-07 04:44 | 65.12707 | -62.41443 | 5224 ft | 140 kts | 74° |
| 2026-05-07 04:44 | 65.13149 | -62.39378 | 5224 ft | 140 kts | 74° |
| 2026-05-07 04:44 | 65.13589 | -62.37316 | 5250 ft | 140 kts | 74° |
| 2026-05-07 04:45 | 65.14028 | -62.35260 | 5248 ft | 139 kts | 74° |
| 2026-05-07 04:45 | 65.14466 | -62.33207 | 5248 ft | 140 kts | 74° |
| 2026-05-07 04:45 | 65.14905 | -62.31147 | 5247 ft | 140 kts | 75° |
| 2026-05-07 04:45 | 65.15345 | -62.29082 | 5246 ft | 140 kts | 74° |
| 2026-05-07 04:46 | 65.15783 | -62.27022 | 5246 ft | 140 kts | 75° |
| 2026-05-07 04:46 | 65.16222 | -62.24955 | 5246 ft | 140 kts | 74° |
| 2026-05-07 04:46 | 65.16661 | -62.22886 | 5244 ft | 140 kts | 75° |
| 2026-05-07 04:46 | 65.17098 | -62.20826 | 5243 ft | 139 kts | 75° |
| 2026-05-07 04:47 | 65.17534 | -62.18766 | 5241 ft | 139 kts | 75° |
| 2026-05-07 04:47 | 65.17971 | -62.16704 | 5240 ft | 140 kts | 75° |
| 2026-05-07 04:47 | 65.18407 | -62.14641 | 5235 ft | 139 kts | 75° |
| 2026-05-07 04:47 | 65.18842 | -62.12580 | 5233 ft | 139 kts | 75° |
| 2026-05-07 04:48 | 65.19277 | -62.10511 | 5233 ft | 140 kts | 75° |
| 2026-05-07 04:48 | 65.19716 | -62.08437 | 5234 ft | 140 kts | 75° |
| 2026-05-07 04:48 | 65.20153 | -62.06360 | 5231 ft | 140 kts | 75° |
| 2026-05-07 04:48 | 65.20590 | -62.04286 | 5231 ft | 140 kts | 75° |
| 2026-05-07 04:49 | 65.21026 | -62.02211 | 5256 ft | 140 kts | 75° |
| 2026-05-07 04:49 | 65.21455 | -62.00166 | 5255 ft | 140 kts | 75° |
| 2026-05-07 04:49 | 65.21889 | -61.98095 | 5255 ft | 140 kts | 75° |
| 2026-05-07 04:49 | 65.22323 | -61.96029 | 5254 ft | 139 kts | 75° |
| 2026-05-07 04:50 | 65.22754 | -61.93964 | 5254 ft | 139 kts | 75° |
| 2026-05-07 04:50 | 65.23186 | -61.91901 | 5254 ft | 139 kts | 75° |
| 2026-05-07 04:50 | 65.23617 | -61.89839 | 5254 ft | 139 kts | 75° |
| 2026-05-07 04:50 | 65.24047 | -61.87774 | 5254 ft | 139 kts | 75° |
| 2026-05-07 04:51 | 65.24479 | -61.85708 | 5254 ft | 139 kts | 75° |
| 2026-05-07 04:51 | 65.24911 | -61.83633 | 5256 ft | 140 kts | 75° |
| 2026-05-07 04:51 | 65.25344 | -61.81552 | 5257 ft | 140 kts | 75° |
| 2026-05-07 04:51 | 65.25777 | -61.79469 | 5255 ft | 140 kts | 75° |
| 2026-05-07 04:52 | 65.26209 | -61.77390 | 5255 ft | 140 kts | 75° |
| 2026-05-07 04:52 | 65.26640 | -61.75311 | 5254 ft | 140 kts | 75° |
| 2026-05-07 04:52 | 65.27070 | -61.73238 | 5252 ft | 139 kts | 75° |
| 2026-05-07 04:52 | 65.27499 | -61.71167 | 5251 ft | 139 kts | 75° |
| 2026-05-07 04:53 | 65.27927 | -61.69099 | 5270 ft | 139 kts | 75° |
| 2026-05-07 04:53 | 65.28354 | -61.67035 | 5271 ft | 139 kts | 75° |
| 2026-05-07 04:53 | 65.28776 | -61.64988 | 5271 ft | 139 kts | 75° |
| 2026-05-07 04:53 | 65.29203 | -61.62918 | 5272 ft | 139 kts | 75° |
| 2026-05-07 04:54 | 65.29630 | -61.60844 | 5269 ft | 139 kts | 75° |
| 2026-05-07 04:54 | 65.30058 | -61.58767 | 5270 ft | 139 kts | 75° |
| 2026-05-07 04:54 | 65.30485 | -61.56690 | 5271 ft | 139 kts | 75° |
| 2026-05-07 04:54 | 65.30911 | -61.54617 | 5269 ft | 139 kts | 75° |
| 2026-05-07 04:55 | 65.31336 | -61.52549 | 5271 ft | 138 kts | 75° |
| 2026-05-07 04:55 | 65.31760 | -61.50481 | 5269 ft | 138 kts | 75° |
| 2026-05-07 04:55 | 65.32183 | -61.48414 | 5271 ft | 138 kts | 75° |
| 2026-05-07 04:55 | 65.32606 | -61.46345 | 5269 ft | 138 kts | 75° |
| 2026-05-07 04:56 | 65.33030 | -61.44273 | 5272 ft | 139 kts | 75° |
| 2026-05-07 04:56 | 65.33453 | -61.42202 | 5273 ft | 138 kts | 75° |
| 2026-05-07 04:56 | 65.33875 | -61.40131 | 5271 ft | 138 kts | 75° |
| 2026-05-07 04:56 | 65.34297 | -61.38063 | 5272 ft | 138 kts | 75° |
| 2026-05-07 04:57 | 65.34713 | -61.36022 | 5269 ft | 138 kts | 75° |
| 2026-05-07 04:57 | 65.35130 | -61.33949 | 5281 ft | 139 kts | 76° |
| 2026-05-07 04:57 | 65.35557 | -61.31855 | 5280 ft | 140 kts | 76° |
| 2026-05-07 04:57 | 65.35986 | -61.29753 | 5282 ft | 141 kts | 76° |
| 2026-05-07 04:58 | 65.36414 | -61.27641 | 5282 ft | 141 kts | 76° |
| 2026-05-07 04:58 | 65.36843 | -61.25526 | 5282 ft | 141 kts | 76° |
| 2026-05-07 04:58 | 65.37273 | -61.23402 | 5282 ft | 142 kts | 76° |
| 2026-05-07 04:58 | 65.37702 | -61.21280 | 5281 ft | 141 kts | 76° |
| 2026-05-07 04:59 | 65.38130 | -61.19156 | 5284 ft | 142 kts | 76° |
| 2026-05-07 04:59 | 65.38415 | -61.17747 | 5283 ft | 142 kts | 76° |
| 2026-05-07 04:59 | 65.38845 | -61.15619 | 5283 ft | 142 kts | 76° |
| 2026-05-07 04:59 | 65.39273 | -61.13494 | 5284 ft | 142 kts | 76° |
| 2026-05-07 05:00 | 65.39701 | -61.11367 | 5283 ft | 141 kts | 76° |
| 2026-05-07 05:00 | 65.40129 | -61.09242 | 5283 ft | 141 kts | 76° |
| 2026-05-07 05:00 | 65.40555 | -61.07116 | 5281 ft | 141 kts | 76° |
| 2026-05-07 05:00 | 65.40982 | -61.04988 | 5282 ft | 141 kts | 76° |
| 2026-05-07 05:01 | 65.41408 | -61.02859 | 5282 ft | 142 kts | 76° |
| 2026-05-07 05:01 | 65.41835 | -61.00729 | 5258 ft | 141 kts | 77° |
| 2026-05-07 05:01 | 65.42255 | -60.98639 | 5290 ft | 138 kts | 78° |
| 2026-05-07 05:01 | 65.42668 | -60.96566 | 5295 ft | 138 kts | 78° |
| 2026-05-07 05:02 | 65.43083 | -60.94484 | 5295 ft | 138 kts | 78° |
| 2026-05-07 05:02 | 65.43499 | -60.92395 | 5294 ft | 139 kts | 78° |
| 2026-05-07 05:02 | 65.43915 | -60.90309 | 5293 ft | 138 kts | 78° |
| 2026-05-07 05:02 | 65.44331 | -60.88221 | 5294 ft | 138 kts | 78° |
| 2026-05-07 05:03 | 65.44744 | -60.86141 | 5292 ft | 138 kts | 78° |
| 2026-05-07 05:03 | 65.45157 | -60.84064 | 5292 ft | 138 kts | 78° |
| 2026-05-07 05:03 | 65.45569 | -60.81986 | 5291 ft | 137 kts | 78° |
| 2026-05-07 05:03 | 65.45980 | -60.79912 | 5290 ft | 137 kts | 78° |
| 2026-05-07 05:04 | 65.46391 | -60.77836 | 5290 ft | 137 kts | 78° |
| 2026-05-07 05:04 | 65.46797 | -60.75787 | 5290 ft | 138 kts | 78° |
| 2026-05-07 05:04 | 65.47208 | -60.73705 | 5290 ft | 138 kts | 78° |
| 2026-05-07 05:04 | 65.47618 | -60.71623 | 5289 ft | 138 kts | 78° |
| 2026-05-07 05:05 | 65.48029 | -60.69544 | 5290 ft | 137 kts | 78° |
| 2026-05-07 05:05 | 65.48439 | -60.67464 | 5290 ft | 137 kts | 78° |
| 2026-05-07 05:05 | 65.48847 | -60.65389 | 5290 ft | 137 kts | 78° |
| 2026-05-07 05:05 | 65.49255 | -60.63313 | 5313 ft | 137 kts | 78° |
| 2026-05-07 05:06 | 65.49663 | -60.61238 | 5309 ft | 137 kts | 78° |
| 2026-05-07 05:06 | 65.50070 | -60.59161 | 5309 ft | 137 kts | 78° |
| 2026-05-07 05:06 | 65.50478 | -60.57082 | 5309 ft | 137 kts | 78° |
| 2026-05-07 05:06 | 65.50885 | -60.55004 | 5308 ft | 137 kts | 78° |
| 2026-05-07 05:07 | 65.51290 | -60.52931 | 5307 ft | 137 kts | 78° |
| 2026-05-07 05:07 | 65.51696 | -60.50854 | 5306 ft | 137 kts | 78° |
| 2026-05-07 05:07 | 65.52101 | -60.48779 | 5306 ft | 137 kts | 78° |
| 2026-05-07 05:07 | 65.52506 | -60.46703 | 5306 ft | 137 kts | 78° |
| 2026-05-07 05:08 | 65.52911 | -60.44626 | 5302 ft | 137 kts | 78° |
| 2026-05-07 05:08 | 65.53316 | -60.42546 | 5302 ft | 137 kts | 78° |
| 2026-05-07 05:08 | 65.53720 | -60.40465 | 5302 ft | 137 kts | 78° |
| 2026-05-07 05:08 | 65.54125 | -60.38384 | 5301 ft | 137 kts | 78° |
| 2026-05-07 05:09 | 65.54528 | -60.36308 | 5303 ft | 137 kts | 78° |
| 2026-05-07 05:09 | 65.54929 | -60.34235 | 5303 ft | 136 kts | 78° |
| 2026-05-07 05:09 | 65.55332 | -60.32160 | 5304 ft | 136 kts | 78° |
| 2026-05-07 05:09 | 65.55731 | -60.30089 | 5304 ft | 136 kts | 78° |
| 2026-05-07 05:10 | 65.56132 | -60.28018 | 5326 ft | 136 kts | 78° |
| 2026-05-07 05:10 | 65.56526 | -60.25973 | 5324 ft | 136 kts | 78° |
| 2026-05-07 05:10 | 65.56927 | -60.23896 | 5322 ft | 137 kts | 78° |
| 2026-05-07 05:10 | 65.57328 | -60.21818 | 5323 ft | 137 kts | 78° |
| 2026-05-07 05:11 | 65.57729 | -60.19733 | 5323 ft | 137 kts | 78° |
| 2026-05-07 05:11 | 65.58130 | -60.17650 | 5323 ft | 137 kts | 78° |
| 2026-05-07 05:11 | 65.58530 | -60.15564 | 5323 ft | 137 kts | 78° |
| 2026-05-07 05:11 | 65.58931 | -60.13473 | 5323 ft | 137 kts | 78° |
| 2026-05-07 05:12 | 65.59333 | -60.11380 | 5318 ft | 137 kts | 78° |
| 2026-05-07 05:12 | 65.59734 | -60.09297 | 5299 ft | 136 kts | 77° |
| 2026-05-07 05:12 | 65.60131 | -60.07214 | 5320 ft | 138 kts | 77° |
| 2026-05-07 05:12 | 65.60535 | -60.05091 | 5320 ft | 140 kts | 77° |
| 2026-05-07 05:13 | 65.60944 | -60.02944 | 5322 ft | 141 kts | 77° |
| 2026-05-07 05:13 | 65.61357 | -60.00782 | 5315 ft | 142 kts | 77° |
| 2026-05-07 05:13 | 65.61769 | -59.98605 | 5327 ft | 142 kts | 78° |
| 2026-05-07 05:13 | 65.62185 | -59.96423 | 5325 ft | 143 kts | 78° |
| 2026-05-07 05:14 | 65.62604 | -59.94227 | 5330 ft | 144 kts | 78° |
| 2026-05-07 05:14 | 65.63023 | -59.92025 | 5354 ft | 144 kts | 78° |
| 2026-05-07 05:14 | 65.63435 | -59.89853 | 5343 ft | 144 kts | 78° |
| 2026-05-07 05:14 | 65.63853 | -59.87645 | 5348 ft | 144 kts | 78° |
| 2026-05-07 05:15 | 65.64271 | -59.85440 | 5353 ft | 144 kts | 78° |
| 2026-05-07 05:15 | 65.64687 | -59.83242 | 5349 ft | 143 kts | 78° |
| 2026-05-07 05:15 | 65.65101 | -59.81048 | 5345 ft | 143 kts | 78° |
| 2026-05-07 05:15 | 65.65515 | -59.78856 | 5354 ft | 143 kts | 78° |
| 2026-05-07 05:16 | 65.65929 | -59.76653 | 5351 ft | 144 kts | 78° |
| 2026-05-07 05:16 | 65.66345 | -59.74446 | 5349 ft | 144 kts | 78° |
| 2026-05-07 05:16 | 65.66761 | -59.72230 | 5349 ft | 144 kts | 78° |
| 2026-05-07 05:16 | 65.67179 | -59.70015 | 5351 ft | 145 kts | 78° |
| 2026-05-07 05:17 | 65.67590 | -59.67802 | 5357 ft | 144 kts | 78° |
| 2026-05-07 05:17 | 65.68006 | -59.65588 | 5356 ft | 144 kts | 78° |
| 2026-05-07 05:17 | 65.68419 | -59.63392 | 5352 ft | 143 kts | 78° |
| 2026-05-07 05:17 | 65.68832 | -59.61188 | 5344 ft | 143 kts | 78° |
| 2026-05-07 05:18 | 65.69242 | -59.58991 | 5351 ft | 143 kts | 78° |
| 2026-05-07 05:18 | 65.69651 | -59.56797 | 5348 ft | 142 kts | 78° |
| 2026-05-07 05:18 | 65.70060 | -59.54608 | 5368 ft | 142 kts | 78° |
| 2026-05-07 05:18 | 65.70468 | -59.52414 | 5372 ft | 142 kts | 78° |
| 2026-05-07 05:19 | 65.70875 | -59.50222 | 5365 ft | 142 kts | 78° |
| 2026-05-07 05:19 | 65.71282 | -59.48031 | 5370 ft | 142 kts | 79° |
| 2026-05-07 05:19 | 65.71689 | -59.45841 | 5370 ft | 142 kts | 79° |
| 2026-05-07 05:19 | 65.72095 | -59.43651 | 5367 ft | 142 kts | 78° |
| 2026-05-07 05:20 | 65.72501 | -59.41458 | 5361 ft | 142 kts | 79° |
| 2026-05-07 05:20 | 65.72907 | -59.39265 | 5364 ft | 142 kts | 79° |
| 2026-05-07 05:20 | 65.73312 | -59.37073 | 5368 ft | 142 kts | 79° |
| 2026-05-07 05:20 | 65.73717 | -59.34877 | 5364 ft | 142 kts | 79° |
| 2026-05-07 05:21 | 65.74122 | -59.32685 | 5369 ft | 142 kts | 79° |
| 2026-05-07 05:21 | 65.74930 | -59.28292 | 5368 ft | 142 kts | 79° |
| 2026-05-07 05:21 | 65.75333 | -59.26103 | 5368 ft | 142 kts | 79° |
| 2026-05-07 05:22 | 65.75735 | -59.23913 | 5366 ft | 142 kts | 79° |
| 2026-05-07 05:22 | 65.76138 | -59.21716 | 5365 ft | 142 kts | 79° |
| 2026-05-07 05:22 | 65.76539 | -59.19527 | 5328 ft | 142 kts | 77° |
| 2026-05-07 05:22 | 65.76944 | -59.17319 | 5365 ft | 146 kts | 77° |
| 2026-05-07 05:23 | 65.77359 | -59.15027 | 5369 ft | 150 kts | 76° |
| 2026-05-07 05:23 | 65.77781 | -59.12716 | 5372 ft | 152 kts | 76° |
| 2026-05-07 05:23 | 65.78213 | -59.10350 | 5377 ft | 154 kts | 76° |
| 2026-05-07 05:23 | 65.78649 | -59.07961 | 5382 ft | 155 kts | 76° |
| 2026-05-07 05:24 | 65.79087 | -59.05556 | 5380 ft | 156 kts | 76° |
| 2026-05-07 05:24 | 65.79526 | -59.03140 | 5380 ft | 156 kts | 76° |
| 2026-05-07 05:24 | 65.79966 | -59.00716 | 5381 ft | 156 kts | 76° |
| 2026-05-07 05:24 | 65.80405 | -58.98295 | 5383 ft | 156 kts | 76° |
| 2026-05-07 05:25 | 65.80844 | -58.95872 | 5381 ft | 156 kts | 76° |
| 2026-05-07 05:25 | 65.81282 | -58.93448 | 5380 ft | 156 kts | 76° |
| 2026-05-07 05:25 | 65.81719 | -58.91026 | 5382 ft | 156 kts | 76° |
| 2026-05-07 05:25 | 65.82156 | -58.88598 | 5381 ft | 156 kts | 76° |
| 2026-05-07 05:26 | 65.82594 | -58.86175 | 5383 ft | 156 kts | 76° |
| 2026-05-07 05:26 | 65.83029 | -58.83756 | 5382 ft | 156 kts | 76° |
| 2026-05-07 05:26 | 65.83464 | -58.81338 | 5397 ft | 155 kts | 76° |
| 2026-05-07 05:26 | 65.83898 | -58.78917 | 5398 ft | 156 kts | 76° |
| 2026-05-07 05:27 | 65.84332 | -58.76494 | 5396 ft | 156 kts | 76° |
| 2026-05-07 05:27 | 65.84767 | -58.74068 | 5396 ft | 156 kts | 76° |
| 2026-05-07 05:27 | 65.85200 | -58.71647 | 5395 ft | 156 kts | 76° |
| 2026-05-07 05:27 | 65.85633 | -58.69222 | 5395 ft | 155 kts | 76° |
| 2026-05-07 05:28 | 65.86065 | -58.66803 | 5396 ft | 155 kts | 76° |
| 2026-05-07 05:28 | 65.86495 | -58.64390 | 5396 ft | 155 kts | 76° |
| 2026-05-07 05:28 | 65.86923 | -58.61982 | 5396 ft | 155 kts | 76° |
| 2026-05-07 05:28 | 65.87351 | -58.59574 | 5394 ft | 155 kts | 77° |
| 2026-05-07 05:29 | 65.87780 | -58.57160 | 5391 ft | 155 kts | 77° |
| 2026-05-07 05:29 | 65.88207 | -58.54751 | 5391 ft | 155 kts | 77° |
| 2026-05-07 05:29 | 65.88634 | -58.52340 | 5391 ft | 154 kts | 77° |
| 2026-05-07 05:29 | 65.89055 | -58.49961 | 5392 ft | 154 kts | 77° |
| 2026-05-07 05:30 | 65.89481 | -58.47549 | 5392 ft | 155 kts | 77° |
| 2026-05-07 05:30 | 65.89907 | -58.45137 | 5405 ft | 154 kts | 77° |
| 2026-05-07 05:30 | 65.90332 | -58.42725 | 5405 ft | 154 kts | 77° |
| 2026-05-07 05:30 | 65.90757 | -58.40314 | 5405 ft | 154 kts | 77° |
| 2026-05-07 05:31 | 65.91181 | -58.37902 | 5405 ft | 154 kts | 77° |
| 2026-05-07 05:31 | 65.91604 | -58.35493 | 5405 ft | 154 kts | 77° |
| 2026-05-07 05:31 | 65.92027 | -58.33081 | 5406 ft | 154 kts | 77° |
| 2026-05-07 05:31 | 65.92450 | -58.30666 | 5406 ft | 154 kts | 77° |
| 2026-05-07 05:32 | 65.92872 | -58.28250 | 5407 ft | 155 kts | 77° |
| 2026-05-07 05:32 | 65.93304 | -58.25818 | 5390 ft | 157 kts | 74° |
| 2026-05-07 05:32 | 65.93731 | -58.23335 | 5390 ft | 159 kts | 74° |
| 2026-05-07 05:32 | 65.94168 | -58.20820 | 5392 ft | 161 kts | 74° |
| 2026-05-07 05:33 | 65.94609 | -58.18288 | 5394 ft | 162 kts | 74° |
| 2026-05-07 05:33 | 65.95052 | -58.15744 | 5397 ft | 163 kts | 74° |
| 2026-05-07 05:33 | 65.95496 | -58.13191 | 5401 ft | 163 kts | 74° |
| 2026-05-07 05:33 | 65.95940 | -58.10629 | 5402 ft | 163 kts | 74° |
| 2026-05-07 05:34 | 65.96383 | -58.08071 | 5414 ft | 163 kts | 74° |
| 2026-05-07 05:34 | 65.96825 | -58.05516 | 5415 ft | 163 kts | 74° |
| 2026-05-07 05:34 | 65.97267 | -58.02955 | 5416 ft | 163 kts | 74° |
| 2026-05-07 05:34 | 65.97704 | -58.00426 | 5416 ft | 163 kts | 74° |
| 2026-05-07 05:35 | 65.98146 | -57.97859 | 5415 ft | 163 kts | 74° |
| 2026-05-07 05:35 | 65.98588 | -57.95290 | 5415 ft | 163 kts | 74° |
| 2026-05-07 05:35 | 65.99029 | -57.92723 | 5415 ft | 163 kts | 73° |
| 2026-05-07 05:35 | 65.99469 | -57.90156 | 5416 ft | 163 kts | 74° |
| 2026-05-07 05:36 | 65.99910 | -57.87586 | 5413 ft | 163 kts | 74° |
| 2026-05-07 05:36 | 66.00350 | -57.85016 | 5412 ft | 163 kts | 74° |
| 2026-05-07 05:36 | 66.00789 | -57.82449 | 5411 ft | 163 kts | 74° |
| 2026-05-07 05:36 | 66.01227 | -57.79882 | 5414 ft | 163 kts | 74° |
| 2026-05-07 05:37 | 66.01665 | -57.77315 | 5412 ft | 163 kts | 74° |
| 2026-05-07 05:37 | 66.02102 | -57.74749 | 5414 ft | 163 kts | 74° |
| 2026-05-07 05:37 | 66.02537 | -57.72185 | 5422 ft | 163 kts | 74° |
| 2026-05-07 05:37 | 66.02973 | -57.69620 | 5421 ft | 162 kts | 74° |
| 2026-05-07 05:38 | 66.03407 | -57.67062 | 5420 ft | 162 kts | 74° |
| 2026-05-07 05:38 | 66.03841 | -57.64494 | 5419 ft | 162 kts | 74° |
| 2026-05-07 05:38 | 66.04276 | -57.61927 | 5421 ft | 162 kts | 74° |
| 2026-05-07 05:38 | 66.04704 | -57.59394 | 5419 ft | 162 kts | 74° |
| 2026-05-07 05:39 | 66.05142 | -57.56794 | 5422 ft | 162 kts | 74° |
| 2026-05-07 05:39 | 66.05573 | -57.54234 | 5423 ft | 162 kts | 74° |
| 2026-05-07 05:39 | 66.05999 | -57.51707 | 5422 ft | 162 kts | 74° |
| 2026-05-07 05:39 | 66.06429 | -57.49145 | 5421 ft | 162 kts | 74° |
| 2026-05-07 05:40 | 66.06860 | -57.46577 | 5419 ft | 162 kts | 74° |
| 2026-05-07 05:40 | 66.07290 | -57.44012 | 5420 ft | 162 kts | 74° |
| 2026-05-07 05:40 | 66.07719 | -57.41447 | 5421 ft | 162 kts | 74° |
| 2026-05-07 05:40 | 66.08148 | -57.38880 | 5419 ft | 162 kts | 74° |
| 2026-05-07 05:41 | 66.08576 | -57.36316 | 5422 ft | 162 kts | 74° |
| 2026-05-07 05:41 | 66.09005 | -57.33748 | 5413 ft | 162 kts | 72° |
| 2026-05-07 05:41 | 66.09436 | -57.31158 | 5413 ft | 164 kts | 72° |
| 2026-05-07 05:41 | 66.09870 | -57.28541 | 5413 ft | 166 kts | 72° |
| 2026-05-07 05:42 | 66.10307 | -57.25909 | 5413 ft | 166 kts | 72° |
| 2026-05-07 05:42 | 66.10746 | -57.23258 | 5415 ft | 167 kts | 72° |
| 2026-05-07 05:42 | 66.11186 | -57.20602 | 5416 ft | 167 kts | 72° |
| 2026-05-07 05:42 | 66.11626 | -57.17940 | 5416 ft | 168 kts | 73° |
| 2026-05-07 05:43 | 66.12067 | -57.15271 | 5420 ft | 168 kts | 73° |
| 2026-05-07 05:43 | 66.12506 | -57.12606 | 5420 ft | 168 kts | 73° |
| 2026-05-07 05:43 | 66.12945 | -57.09939 | 5421 ft | 168 kts | 73° |
| 2026-05-07 05:43 | 66.13384 | -57.07268 | 5421 ft | 168 kts | 73° |
| 2026-05-07 05:44 | 66.13821 | -57.04599 | 5418 ft | 168 kts | 73° |
| 2026-05-07 05:44 | 66.14258 | -57.01931 | 5417 ft | 168 kts | 73° |
| 2026-05-07 05:44 | 66.14695 | -56.99263 | 5419 ft | 168 kts | 73° |
| 2026-05-07 05:44 | 66.15132 | -56.96591 | 5421 ft | 168 kts | 73° |
| 2026-05-07 05:45 | 66.15569 | -56.93919 | 5425 ft | 168 kts | 73° |
| 2026-05-07 05:45 | 66.16004 | -56.91247 | 5426 ft | 168 kts | 73° |
| 2026-05-07 05:45 | 66.16433 | -56.88612 | 5426 ft | 168 kts | 73° |
| 2026-05-07 05:45 | 66.16869 | -56.85940 | 5427 ft | 168 kts | 73° |
| 2026-05-07 05:46 | 66.17302 | -56.83269 | 5431 ft | 167 kts | 73° |
| 2026-05-07 05:46 | 66.17733 | -56.80594 | 5432 ft | 167 kts | 73° |
| 2026-05-07 05:46 | 66.18168 | -56.77919 | 5433 ft | 168 kts | 73° |
| 2026-05-07 05:46 | 66.18601 | -56.75246 | 5431 ft | 167 kts | 73° |
| 2026-05-07 05:47 | 66.19033 | -56.72572 | 5430 ft | 167 kts | 73° |
| 2026-05-07 05:47 | 66.19464 | -56.69898 | 5432 ft | 167 kts | 73° |
| 2026-05-07 05:47 | 66.19895 | -56.67221 | 5433 ft | 168 kts | 73° |
| 2026-05-07 05:47 | 66.20326 | -56.64540 | 5433 ft | 168 kts | 73° |
| 2026-05-07 05:48 | 66.20757 | -56.61858 | 5435 ft | 167 kts | 73° |
| 2026-05-07 05:48 | 66.21186 | -56.59177 | 5443 ft | 168 kts | 73° |
| 2026-05-07 05:48 | 66.21615 | -56.56495 | 5441 ft | 168 kts | 73° |
| 2026-05-07 05:48 | 66.22045 | -56.53811 | 5442 ft | 168 kts | 73° |
| 2026-05-07 05:49 | 66.22473 | -56.51125 | 5441 ft | 168 kts | 73° |
| 2026-05-07 05:49 | 66.22901 | -56.48438 | 5441 ft | 168 kts | 73° |
| 2026-05-07 05:49 | 66.23330 | -56.45746 | 5441 ft | 168 kts | 73° |
| 2026-05-07 05:49 | 66.23759 | -56.43049 | 5442 ft | 168 kts | 73° |
| 2026-05-07 05:50 | 66.24187 | -56.40351 | 5420 ft | 168 kts | 74° |
| 2026-05-07 05:50 | 66.24616 | -56.37643 | 5425 ft | 170 kts | 74° |
| 2026-05-07 05:50 | 66.25050 | -56.34907 | 5425 ft | 171 kts | 74° |
| 2026-05-07 05:50 | 66.25483 | -56.32163 | 5423 ft | 171 kts | 74° |
| 2026-05-07 05:51 | 66.25912 | -56.29441 | 5426 ft | 172 kts | 74° |
| 2026-05-07 05:51 | 66.26347 | -56.26679 | 5424 ft | 172 kts | 74° |
| 2026-05-07 05:51 | 66.26783 | -56.23911 | 5427 ft | 172 kts | 74° |
| 2026-05-07 05:51 | 66.27218 | -56.21139 | 5435 ft | 172 kts | 74° |
| 2026-05-07 05:52 | 66.27653 | -56.18368 | 5435 ft | 172 kts | 74° |
| 2026-05-07 05:52 | 66.28088 | -56.15592 | 5436 ft | 173 kts | 74° |
| 2026-05-07 05:52 | 66.28522 | -56.12818 | 5435 ft | 173 kts | 74° |
| 2026-05-07 05:52 | 66.28956 | -56.10035 | 5436 ft | 173 kts | 74° |
| 2026-05-07 05:53 | 66.29391 | -56.07249 | 5440 ft | 173 kts | 74° |
| 2026-05-07 05:53 | 66.29823 | -56.04469 | 5442 ft | 173 kts | 74° |
| 2026-05-07 05:53 | 66.30110 | -56.02626 | 5441 ft | 172 kts | 74° |
| 2026-05-07 05:53 | 66.30542 | -55.99846 | 5445 ft | 172 kts | 74° |
| 2026-05-07 05:54 | 66.30973 | -55.97067 | 5441 ft | 172 kts | 74° |
| 2026-05-07 05:54 | 66.31403 | -55.94286 | 5443 ft | 172 kts | 74° |
| 2026-05-07 05:54 | 66.31833 | -55.91506 | 5442 ft | 172 kts | 74° |
| 2026-05-07 05:54 | 66.32263 | -55.88725 | 5440 ft | 172 kts | 74° |
| 2026-05-07 05:55 | 66.32692 | -55.85942 | 5445 ft | 172 kts | 75° |
| 2026-05-07 05:55 | 66.33120 | -55.83159 | 5450 ft | 172 kts | 75° |
| 2026-05-07 05:55 | 66.33548 | -55.80374 | 5455 ft | 172 kts | 75° |
| 2026-05-07 05:55 | 66.33975 | -55.77589 | 5451 ft | 172 kts | 75° |
| 2026-05-07 05:56 | 66.34403 | -55.74799 | 5451 ft | 172 kts | 75° |
| 2026-05-07 05:56 | 66.34830 | -55.72007 | 5441 ft | 173 kts | 75° |
| 2026-05-07 05:56 | 66.35257 | -55.69212 | 5437 ft | 173 kts | 75° |
| 2026-05-07 05:56 | 66.35684 | -55.66412 | 5440 ft | 173 kts | 75° |
| 2026-05-07 05:57 | 66.36112 | -55.63606 | 5441 ft | 173 kts | 75° |
| 2026-05-07 05:57 | 66.36534 | -55.60833 | 5439 ft | 173 kts | 75° |
| 2026-05-07 05:57 | 66.36960 | -55.58024 | 5442 ft | 173 kts | 75° |
| 2026-05-07 05:57 | 66.37387 | -55.55211 | 5438 ft | 173 kts | 75° |
| 2026-05-07 05:58 | 66.37813 | -55.52396 | 5444 ft | 173 kts | 75° |
| 2026-05-07 05:58 | 66.38238 | -55.49582 | 5440 ft | 173 kts | 75° |
| 2026-05-07 05:58 | 66.38663 | -55.46767 | 5443 ft | 173 kts | 75° |
| 2026-05-07 05:58 | 66.39087 | -55.43951 | 5431 ft | 174 kts | 73° |
| 2026-05-07 05:59 | 66.39515 | -55.41115 | 5436 ft | 175 kts | 73° |
| 2026-05-07 05:59 | 66.39943 | -55.38257 | 5442 ft | 176 kts | 73° |
| 2026-05-07 05:59 | 66.40374 | -55.35383 | 5442 ft | 177 kts | 73° |
| 2026-05-07 05:59 | 66.40805 | -55.32504 | 5441 ft | 177 kts | 73° |
| 2026-05-07 06:00 | 66.41237 | -55.29616 | 5441 ft | 177 kts | 73° |
| 2026-05-07 06:00 | 66.41668 | -55.26732 | 5443 ft | 177 kts | 73° |
| 2026-05-07 06:00 | 66.42098 | -55.23844 | 5444 ft | 177 kts | 73° |
| 2026-05-07 06:00 | 66.42527 | -55.20955 | 5449 ft | 177 kts | 73° |
| 2026-05-07 06:01 | 66.42957 | -55.18063 | 5454 ft | 178 kts | 73° |
| 2026-05-07 06:01 | 66.43387 | -55.15168 | 5455 ft | 178 kts | 73° |
| 2026-05-07 06:01 | 66.43817 | -55.12263 | 5455 ft | 178 kts | 74° |
| 2026-05-07 06:01 | 66.44246 | -55.09357 | 5455 ft | 178 kts | 73° |
| 2026-05-07 06:02 | 66.44676 | -55.06449 | 5455 ft | 178 kts | 73° |
| 2026-05-07 06:02 | 66.45099 | -55.03577 | 5456 ft | 179 kts | 73° |
| 2026-05-07 06:02 | 66.45534 | -55.00625 | 5456 ft | 178 kts | 73° |
| 2026-05-07 06:02 | 66.45961 | -54.97714 | 5454 ft | 178 kts | 73° |
| 2026-05-07 06:03 | 66.46383 | -54.94837 | 5455 ft | 178 kts | 74° |
| 2026-05-07 06:03 | 66.46810 | -54.91925 | 5455 ft | 178 kts | 74° |
| 2026-05-07 06:03 | 66.47237 | -54.89006 | 5454 ft | 178 kts | 73° |
| 2026-05-07 06:03 | 66.47662 | -54.86092 | 5455 ft | 178 kts | 74° |
| 2026-05-07 06:04 | 66.48086 | -54.83181 | 5463 ft | 178 kts | 74° |
| 2026-05-07 06:04 | 66.48511 | -54.80261 | 5463 ft | 178 kts | 74° |
| 2026-05-07 06:04 | 66.48941 | -54.77302 | 5450 ft | 179 kts | 74° |
| 2026-05-07 06:04 | 66.49360 | -54.74413 | 5419 ft | 179 kts | 74° |
| 2026-05-07 06:05 | 66.49789 | -54.71452 | 5398 ft | 178 kts | 74° |
| 2026-05-07 06:05 | 66.50212 | -54.68527 | 5370 ft | 178 kts | 74° |
| 2026-05-07 06:05 | 66.50628 | -54.65649 | 5344 ft | 178 kts | 74° |
| 2026-05-07 06:05 | 66.51049 | -54.62723 | 5319 ft | 178 kts | 74° |
| 2026-05-07 06:06 | 66.51469 | -54.59803 | 5293 ft | 178 kts | 74° |
| 2026-05-07 06:06 | 66.51889 | -54.56879 | 5267 ft | 178 kts | 74° |
| 2026-05-07 06:06 | 66.52308 | -54.53952 | 5241 ft | 178 kts | 74° |
| 2026-05-07 06:06 | 66.52727 | -54.51030 | 5212 ft | 178 kts | 74° |
| 2026-05-07 06:07 | 66.53145 | -54.48101 | 5191 ft | 179 kts | 74° |
| 2026-05-07 06:07 | 66.53559 | -54.45218 | 5290 ft | 173 kts | 72° |
| 2026-05-07 06:07 | 66.53960 | -54.42403 | 5415 ft | 170 kts | 72° |
| 2026-05-07 06:07 | 66.54359 | -54.39592 | 5448 ft | 173 kts | 73° |
| 2026-05-07 06:08 | 66.54764 | -54.36729 | 5450 ft | 175 kts | 73° |
| 2026-05-07 06:08 | 66.55174 | -54.33838 | 5452 ft | 177 kts | 72° |
| 2026-05-07 06:08 | 66.55587 | -54.30925 | 5454 ft | 178 kts | 72° |
| 2026-05-07 06:08 | 66.55999 | -54.27994 | 5455 ft | 178 kts | 72° |
| 2026-05-07 06:09 | 66.56395 | -54.25046 | 5458 ft | 178 kts | 75° |
| 2026-05-07 06:09 | 66.56788 | -54.22092 | 5460 ft | 179 kts | 73° |
| 2026-05-07 06:09 | 66.57184 | -54.19122 | 5460 ft | 180 kts | 72° |
| 2026-05-07 06:09 | 66.57584 | -54.16142 | 5460 ft | 180 kts | 73° |
| 2026-05-07 06:10 | 66.57984 | -54.13155 | 5461 ft | 181 kts | 73° |
| 2026-05-07 06:10 | 66.58384 | -54.10158 | 5462 ft | 181 kts | 73° |
| 2026-05-07 06:10 | 66.58785 | -54.07157 | 5463 ft | 181 kts | 73° |
| 2026-05-07 06:10 | 66.59185 | -54.04152 | 5463 ft | 181 kts | 73° |
| 2026-05-07 06:11 | 66.59583 | -54.01150 | 5462 ft | 181 kts | 73° |
| 2026-05-07 06:11 | 66.59983 | -53.98147 | 5462 ft | 181 kts | 73° |
| 2026-05-07 06:11 | 66.60381 | -53.95143 | 5463 ft | 181 kts | 73° |
| 2026-05-07 06:11 | 66.60779 | -53.92136 | 5462 ft | 181 kts | 73° |
| 2026-05-07 06:12 | 66.61175 | -53.89130 | 5463 ft | 181 kts | 73° |
| 2026-05-07 06:12 | 66.61571 | -53.86120 | 5461 ft | 181 kts | 73° |
| 2026-05-07 06:12 | 66.61967 | -53.83108 | 5461 ft | 181 kts | 73° |
| 2026-05-07 06:12 | 66.62362 | -53.80097 | 5461 ft | 181 kts | 73° |
| 2026-05-07 06:13 | 66.62757 | -53.77084 | 5464 ft | 181 kts | 73° |
| 2026-05-07 06:13 | 66.63150 | -53.74072 | 5464 ft | 181 kts | 73° |
| 2026-05-07 06:13 | 66.63543 | -53.71059 | 5464 ft | 181 kts | 73° |
| 2026-05-07 06:13 | 66.63936 | -53.68051 | 5464 ft | 181 kts | 73° |
| 2026-05-07 06:14 | 66.64328 | -53.65035 | 5462 ft | 181 kts | 74° |
| 2026-05-07 06:14 | 66.64720 | -53.62018 | 5462 ft | 181 kts | 74° |
| 2026-05-07 06:14 | 66.65110 | -53.58998 | 5463 ft | 181 kts | 74° |
| 2026-05-07 06:14 | 66.65496 | -53.56022 | 5461 ft | 181 kts | 73° |
| 2026-05-07 06:15 | 66.65886 | -53.53001 | 5461 ft | 181 kts | 73° |
| 2026-05-07 06:15 | 66.66275 | -53.49981 | 5461 ft | 181 kts | 74° |
| 2026-05-07 06:15 | 66.66664 | -53.46959 | 5453 ft | 182 kts | 73° |
| 2026-05-07 06:15 | 66.67054 | -53.43918 | 5452 ft | 183 kts | 73° |
| 2026-05-07 06:16 | 66.67447 | -53.40855 | 5452 ft | 184 kts | 73° |
| 2026-05-07 06:16 | 66.67841 | -53.37779 | 5453 ft | 185 kts | 73° |
| 2026-05-07 06:16 | 66.68235 | -53.34695 | 5453 ft | 185 kts | 73° |
| 2026-05-07 06:16 | 66.68629 | -53.31606 | 5454 ft | 185 kts | 73° |
| 2026-05-07 06:17 | 66.69022 | -53.28517 | 5458 ft | 185 kts | 73° |
| 2026-05-07 06:17 | 66.69415 | -53.25423 | 5456 ft | 185 kts | 73° |
| 2026-05-07 06:17 | 66.69807 | -53.22332 | 5461 ft | 185 kts | 73° |
| 2026-05-07 06:17 | 66.70199 | -53.19230 | 5459 ft | 185 kts | 73° |
| 2026-05-07 06:18 | 66.70591 | -53.16129 | 5456 ft | 185 kts | 73° |
| 2026-05-07 06:18 | 66.70981 | -53.13029 | 5457 ft | 185 kts | 73° |
| 2026-05-07 06:18 | 66.71367 | -53.09965 | 5458 ft | 186 kts | 73° |
| 2026-05-07 06:18 | 66.71758 | -53.06851 | 5459 ft | 186 kts | 73° |
| 2026-05-07 06:19 | 66.72150 | -53.03723 | 5460 ft | 187 kts | 73° |
| 2026-05-07 06:19 | 66.72543 | -53.00584 | 5460 ft | 187 kts | 73° |
| 2026-05-07 06:19 | 66.72935 | -52.97451 | 5459 ft | 187 kts | 73° |
| 2026-05-07 06:19 | 66.73324 | -52.94318 | 5459 ft | 187 kts | 73° |
| 2026-05-07 06:20 | 66.73710 | -52.91185 | 5458 ft | 186 kts | 73° |
| 2026-05-07 06:20 | 66.74097 | -52.88063 | 5455 ft | 185 kts | 73° |
| 2026-05-07 06:20 | 66.74482 | -52.84959 | 5457 ft | 185 kts | 73° |
| 2026-05-07 06:20 | 66.74868 | -52.81846 | 5456 ft | 185 kts | 74° |
| 2026-05-07 06:21 | 66.75252 | -52.78736 | 5460 ft | 185 kts | 73° |
| 2026-05-07 06:21 | 66.75636 | -52.75620 | 5460 ft | 185 kts | 73° |
| 2026-05-07 06:21 | 66.76020 | -52.72499 | 5457 ft | 186 kts | 74° |
| 2026-05-07 06:21 | 66.76401 | -52.69400 | 5456 ft | 187 kts | 74° |
| 2026-05-07 06:22 | 66.76786 | -52.66254 | 5458 ft | 187 kts | 74° |
| 2026-05-07 06:22 | 66.77558 | -52.59978 | 5458 ft | 187 kts | 74° |
| 2026-05-07 06:22 | 66.77940 | -52.56836 | 5458 ft | 187 kts | 74° |
| 2026-05-07 06:23 | 66.78322 | -52.53691 | 5459 ft | 187 kts | 74° |
| 2026-05-07 06:23 | 66.78704 | -52.50542 | 5458 ft | 187 kts | 74° |
| 2026-05-07 06:23 | 66.79085 | -52.47399 | 5457 ft | 186 kts | 74° |
| 2026-05-07 06:23 | 66.79464 | -52.44261 | 5458 ft | 186 kts | 74° |
| 2026-05-07 06:24 | 66.79844 | -52.41110 | 5460 ft | 187 kts | 74° |
| 2026-05-07 06:24 | 66.80223 | -52.37960 | 5460 ft | 187 kts | 74° |
| 2026-05-07 06:24 | 66.80600 | -52.34808 | 5460 ft | 187 kts | 74° |
| 2026-05-07 06:24 | 66.80978 | -52.31659 | 5460 ft | 187 kts | 74° |
| 2026-05-07 06:25 | 66.81355 | -52.28506 | 5457 ft | 187 kts | 74° |
| 2026-05-07 06:25 | 66.81732 | -52.25351 | 5459 ft | 187 kts | 74° |
| 2026-05-07 06:25 | 66.82109 | -52.22194 | 5458 ft | 187 kts | 74° |
| 2026-05-07 06:25 | 66.82480 | -52.19074 | 5459 ft | 187 kts | 74° |
| 2026-05-07 06:26 | 66.82855 | -52.15911 | 5456 ft | 187 kts | 74° |
| 2026-05-07 06:26 | 66.83230 | -52.12751 | 5456 ft | 187 kts | 74° |
| 2026-05-07 06:26 | 66.83603 | -52.09601 | 5458 ft | 186 kts | 75° |
| 2026-05-07 06:26 | 66.83973 | -52.06454 | 5457 ft | 186 kts | 75° |
| 2026-05-07 06:27 | 66.84343 | -52.03304 | 5456 ft | 186 kts | 75° |
| 2026-05-07 06:27 | 66.84713 | -52.00156 | 5457 ft | 186 kts | 75° |
| 2026-05-07 06:27 | 66.85085 | -51.96996 | 5458 ft | 187 kts | 75° |
| 2026-05-07 06:27 | 66.85454 | -51.93839 | 5457 ft | 186 kts | 75° |
| 2026-05-07 06:28 | 66.85823 | -51.90684 | 5461 ft | 186 kts | 75° |
| 2026-05-07 06:28 | 66.86191 | -51.87525 | 5460 ft | 186 kts | 75° |
| 2026-05-07 06:28 | 66.86559 | -51.84365 | 5461 ft | 186 kts | 75° |
| 2026-05-07 06:28 | 66.86926 | -51.81211 | 5466 ft | 186 kts | 75° |
| 2026-05-07 06:29 | 66.87292 | -51.78052 | 5465 ft | 186 kts | 75° |
| 2026-05-07 06:29 | 66.87657 | -51.74893 | 5465 ft | 186 kts | 75° |
| 2026-05-07 06:29 | 66.88022 | -51.71734 | 5466 ft | 186 kts | 75° |
| 2026-05-07 06:29 | 66.88388 | -51.68568 | 5465 ft | 186 kts | 75° |
| 2026-05-07 06:30 | 66.88751 | -51.65403 | 5465 ft | 186 kts | 75° |
| 2026-05-07 06:30 | 66.89116 | -51.62244 | 5466 ft | 187 kts | 75° |
| 2026-05-07 06:30 | 66.89479 | -51.59070 | 5466 ft | 187 kts | 75° |
| 2026-05-07 06:30 | 66.89842 | -51.55897 | 5466 ft | 187 kts | 75° |
| 2026-05-07 06:31 | 66.90204 | -51.52722 | 5462 ft | 186 kts | 75° |
| 2026-05-07 06:31 | 66.90565 | -51.49554 | 5460 ft | 186 kts | 75° |
| 2026-05-07 06:31 | 66.90925 | -51.46380 | 5463 ft | 187 kts | 75° |
| 2026-05-07 06:31 | 66.91286 | -51.43198 | 5457 ft | 187 kts | 75° |
| 2026-05-07 06:32 | 66.91643 | -51.40056 | 5455 ft | 187 kts | 76° |
| 2026-05-07 06:32 | 66.92000 | -51.36870 | 5453 ft | 187 kts | 76° |
| 2026-05-07 06:32 | 66.92360 | -51.33686 | 5453 ft | 187 kts | 76° |
| 2026-05-07 06:32 | 66.92718 | -51.30499 | 5449 ft | 187 kts | 76° |
| 2026-05-07 06:33 | 66.93075 | -51.27321 | 5447 ft | 186 kts | 76° |
| 2026-05-07 06:33 | 66.93432 | -51.24129 | 5357 ft | 191 kts | 76° |
| 2026-05-07 06:33 | 66.93800 | -51.20825 | 5209 ft | 195 kts | 76° |
| 2026-05-07 06:33 | 66.94175 | -51.17467 | 5059 ft | 199 kts | 76° |
| 2026-05-07 06:34 | 66.94554 | -51.14056 | 4900 ft | 201 kts | 76° |
| 2026-05-07 06:34 | 66.94936 | -51.10618 | 4744 ft | 202 kts | 76° |
| 2026-05-07 06:34 | 66.95349 | -51.07224 | 4501 ft | 199 kts | 77° |
| 2026-05-07 06:34 | 66.95514 | -51.03851 | 4444 ft | 184 kts | 95° |
| 2026-05-07 06:35 | 66.95215 | -51.00762 | 4252 ft | 178 kts | 119° |
| 2026-05-07 06:35 | 66.94444 | -50.98300 | 3893 ft | 182 kts | 142° |
| 2026-05-07 06:35 | 66.93379 | -50.96786 | 3842 ft | 168 kts | 164° |
| 2026-05-07 06:35 | 66.92252 | -50.96541 | 3789 ft | 159 kts | 191° |
| 2026-05-07 06:36 | 66.91377 | -50.98061 | 3687 ft | 157 kts | 238° |
| 2026-05-07 06:36 | 66.91240 | -51.00733 | 3621 ft | 158 kts | 280° |
| 2026-05-07 06:36 | 66.91874 | -51.03148 | 3161 ft | 178 kts | 327° |
| 2026-05-07 06:36 | 66.93010 | -51.03553 | 3169 ft | 164 kts | 22° |
| 2026-05-07 06:37 | 66.93848 | -51.01745 | 3101 ft | 159 kts | 51° |
| 2026-05-07 06:37 | 66.94518 | -50.99535 | 3009 ft | 157 kts | 54° |
| 2026-05-07 06:37 | 66.95202 | -50.97362 | 2896 ft | 157 kts | 53° |
| 2026-05-07 06:37 | 66.95844 | -50.95108 | 2773 ft | 157 kts | 58° |
| 2026-05-07 06:38 | 66.96413 | -50.92756 | 2626 ft | 155 kts | 59° |
| 2026-05-07 06:38 | 66.97012 | -50.90429 | 2343 ft | 161 kts | 58° |
| 2026-05-07 06:38 | 66.97597 | -50.88083 | 2130 ft | 150 kts | 59° |
| 2026-05-07 06:38 | 66.98114 | -50.85898 | 1906 ft | 144 kts | 62° |
| 2026-05-07 06:39 | 66.98624 | -50.83603 | 1514 ft | 150 kts | 60° |
| 2026-05-07 06:39 | 66.99108 | -50.81362 | 1279 ft | 135 kts | 69° |
| 2026-05-07 06:39 | 66.99539 | -50.79349 | 1046 ft | 119 kts | 81° |
| 2026-05-07 06:39 | 66.99899 | -50.77483 | 685 ft | 118 kts | 72° |
| 2026-05-07 06:40 | 67.00292 | -50.75610 | 372 ft | 110 kts | 56° |
| 2026-05-07 06:40 | 67.00598 | -50.74092 | 161 ft | 86 kts | 54° |
| 2026-05-07 06:40 | 67.00822 | -50.73024 | 154 ft | 50 kts | 59° |
| 2026-05-07 06:40 | 67.00960 | -50.72406 | 159 ft | 32 kts | 59° |
| 2026-05-07 06:41 | 67.00922 | -50.72094 | 162 ft | 18 kts | 152° |
| 2026-05-07 06:41 | 67.00825 | -50.71928 | 163 ft | 15 kts | 126° |
| 2026-05-07 06:41 | 67.00790 | -50.71762 | 164 ft | 7 kts | 144° |
| 2026-05-07 06:41 | 67.00757 | -50.71714 | 164 ft | 2 kts | 150° |
| 2026-05-07 06:42 | 67.00753 | -50.71708 | 164 ft | 0 kts | 150° |